Terminal Aerodrome Forecast
Issued by NWS

Current Version | Previous Version | Text Only | Print | Product List | Glossary Off
Versions: 1 2 3 4 5 6 7 8 9 10 11 12 13 14 15 16 17

110
FTUS41 KILN 091124
TAFLUK
TAF
KLUK 091124Z 0912/1012 25012KT 4SM -SN OVC025
      TEMPO 0912/0914 1SM -SN OVC018
     FM091700 28012G18KT 5SM -SHSN OVC025
     FM092300 28010KT P6SM VCSH OVC025=

USA.gov is the U.S. government's official web portal to all federal, state and local government web resources and services.